ADDS METAR Data INFO
IDs: Format: Raw Decoded Include TAF

Data at: 1717 UTC 23 Oct 2017

KGLH 231653Z 30007KT 250V330 10SM CLR 18/08 A3008 RMK AO2 SLP192 T01780078
KGLH 231553Z 28012KT 10SM CLR 16/08 A3008 RMK AO2 SLP194 T01610078
KGLH 231453Z 27010KT 10SM CLR 14/08 A3007 RMK AO2 SLP188 T01390083 50011
KGLH 231353Z 29007KT 10SM CLR 12/08 A3007 RMK AO2 SLP189 T01220083
KGLH 231253Z 30004KT 10SM CLR 11/09 A3005 RMK AO2 SLP181 T01060089
KGLH 231153Z AUTO 29007KT 10SM CLR 11/09 A3003 RMK AO2 SLP177 70021 T01110089 10139 20111 53007
KGLH 231101Z AUTO 30006KT 10SM SCT016 SCT030 12/09 A3003 RMK AO2 T01170094
KGLH 231053Z AUTO 30008KT 10SM BKN016 BKN030 12/09 A3002 RMK AO2 SLP174 T01170094
KGLH 231051Z AUTO 30009KT 10SM BKN016 BKN030 12/09 A3002 RMK AO2
KGLH 230953Z AUTO 29007KT 10SM OVC013 13/11 A3001 RMK AO2 SLP170 T01280106
KGLH 230936Z AUTO 30007KT 10SM OVC014 13/11 A3001 RMK AO2 T01280111
KGLH 230908Z AUTO 30008KT 10SM BKN016 13/11 A3001 RMK AO2 T01280111
KGLH 230853Z AUTO 28005KT 10SM FEW014 12/11 A3000 RMK AO2 SLP166 T01220106 56009
KGLH 230753Z AUTO 32005KT 10SM CLR 13/11 A3001 RMK AO2 SLP167 T01280111
KGLH 230739Z AUTO 33007KT 10SM FEW027 13/11 A3001 RMK AO2 T01330111
KGLH 230653Z AUTO 31008KT 10SM FEW014 OVC028 14/12 A3001 RMK AO2 SLP171 T01390117
KGLH 230553Z AUTO 32005KT 10SM OVC016 14/12 A3003 RMK AO2 SLP175 T01390117 10167 20139 402330139 58001
KGLH 230453Z AUTO 34008KT 10SM OVC015 15/12 A3004 RMK AO2 SLP179 T01500122
KGLH 230353Z AUTO 32010KT 10SM BKN013 16/13 A3003 RMK AO2 SLP177 T01560133
KGLH 230348Z AUTO 33010KT 10SM BKN013 16/13 A3003 RMK AO2
KGLH 230253Z AUTO 30006KT 10SM CLR 16/14 A3004 RMK AO2 SLP178 T01560139 51009
KGLH 230153Z AUTO 29004KT 10SM CLR 16/14 A3003 RMK AO2 SLP175 T01560139
KGLH 230053Z AUTO 31004KT 10SM CLR 16/14 A3002 RMK AO2 SLP172 T01560139
KGLH 222353Z AUTO 33003KT 10SM CLR 17/14 A3001 RMK AO2 SLP168 60000 T01670144 10189 20167 51008
KGLH 222253Z 31007KT 10SM FEW033 OVC048 18/15 A3001 RMK AO2 SLP168 T01830150
KGLH 222227Z 30006KT 10SM FEW014 SCT025 OVC033 18/16 A3001 RMK AO2 T01830156
KGLH 222212Z 30007KT 10SM FEW014 BKN024 OVC035 18/16 A3001 RMK AO2 T01830156
KGLH 222201Z 31007KT 10SM FEW014 OVC030 18/16 A3000 RMK AO2 T01830156
KGLH 222153Z 32008KT 10SM FEW012 BKN027 OVC036 18/16 A2999 RMK AO2 SLP163 T01830156
KGLH 222114Z 32004KT 10SM BKN016 OVC021 18/16 A2998 RMK AO2 T01830156
KGLH 222053Z 00000KT 10SM BKN014 OVC110 18/16 A2998 RMK AO2 RAB43E52 PRESRR SLP159 P0000 60000 T01830156 56015
KGLH 221953Z 23006KT 10SM OVC013 18/16 A3000 RMK AO2 SLP164 T01830156
KGLH 221853Z 22006KT 10SM BKN013 BKN120 19/16 A3001 RMK AO2 SLP169 T01890156
KGLH 221806Z 24009KT 10SM BKN011 OVC100 18/16 A3003 RMK AO2 T01780156
KGLH 221753Z 21008KT 10SM SCT011 OVC100 18/16 A3003 RMK AO2 RAE02 SLP175 P0000 60021 T01830156 10206 20161 58002
KGLH 221653Z 25008KT 10SM -RA OVC011 18/16 A3005 RMK AO2 RAB1554 CIG 008V015 SLP181 P0000 T01780161
KGLH 221623Z 28008KT 10SM -RA BKN012 BKN070 OVC100 18/16 A3006 RMK AO2 RAB1554 P0000 T01780161
KGLH 221553Z 05003KT 10SM FEW060 OVC075 17/16 A3004 RMK AO2 RAE52 SLP177 P0000 T01720156
KGLH 221453Z 06004KT 9SM -RA BKN080 OVC100 17/15 A3004 RMK AO2 SLP177 P0014 60021 T01670150 53009
KGLH 221430Z 03007KT 3SM +RA BKN048 OVC080 16/15 A3004 RMK AO2 P0013 T01610150
KGLH 221419Z 02005KT 1 3/4SM +RA BKN048 OVC070 16/15 A3004 RMK AO2 P0009 T01610150
KGLH 221353Z 36008KT 7SM RA FEW025 BKN055 OVC070 17/14 A3003 RMK AO2 PK WND 32028/1256 SLP174 P0007 T01670144
KGLH 221253Z 32020G27KT 6SM RA FEW020 BKN033 OVC050 17/14 A3001 RMK AO2 PK WND 30031/1232 WSHFT 1229 LTG DSNT SW SLP167 P0000 T01670144
KGLH 221249Z 32021G27KT 7SM -RA FEW020 BKN035 OVC050 17/14 A3001 RMK AO2 PK WND 30031/1232 WSHFT 1229 LTG DSNT SW P0000
KGLH 221233Z 31020G31KT 10SM -RA SCT018 BKN033 OVC110 20/18 A3003 RMK AO2 PK WND 30031/1232 PRESRR P0000 T02000178
KGLH 221153Z 16007KT 10SM VCTS -RA FEW060 SCT100 21/17 A2997 RMK AO2 LTG DSNT SW AND W RAB1056E06B51 SLP155 P0000 60000 70002 T02060172 10233 20200 50000
KGLH 221053Z AUTO 00000KT 10SM BKN034 OVC090 20/18 A3000 RMK AO2 LTG DSNT NW SLP163 T02000178
KGLH 220953Z AUTO 14004KT 10SM SCT033 21/17 A2998 RMK AO2 SLP158 T02110172
KGLH 220853Z AUTO 15008KT 10SM OVC034 22/18 A2997 RMK AO2 SLP155 T02220178 55007
KGLH 220753Z AUTO 15009KT 10SM SCT037 23/18 A2997 RMK AO2 SLP152 T02280178
KGLH 220653Z AUTO 16014G21KT 10SM CLR 23/19 A2997 RMK AO2 SLP153 T02280194
KGLH 220553Z AUTO 15018G23KT 10SM CLR 23/20 A2999 RMK AO2 SLP161 60002 T02330200 10272 20222 403060172 58010